sensor_id;sensor_type;location;lat;lon;timestamp;temperature;humidity
3713;DHT22;1872;51.406;6.856;2023-04-06T00:01:58;3.60;92.10
3713;DHT22;1872;51.406;6.856;2023-04-06T00:04:24;3.60;92.20
3713;DHT22;1872;51.406;6.856;2023-04-06T00:06:50;3.60;92.30
3713;DHT22;1872;51.406;6.856;2023-04-06T00:09:16;3.60;92.40
3713;DHT22;1872;51.406;6.856;2023-04-06T00:11:41;3.50;92.40
3713;DHT22;1872;51.406;6.856;2023-04-06T00:14:07;3.50;92.50
3713;DHT22;1872;51.406;6.856;2023-04-06T00:16:33;3.50;92.60
3713;DHT22;1872;51.406;6.856;2023-04-06T00:18:58;3.40;92.70
3713;DHT22;1872;51.406;6.856;2023-04-06T00:21:24;3.40;92.80
3713;DHT22;1872;51.406;6.856;2023-04-06T00:23:51;3.30;92.80
3713;DHT22;1872;51.406;6.856;2023-04-06T00:26:16;3.30;92.90
3713;DHT22;1872;51.406;6.856;2023-04-06T00:28:42;3.30;93.00
3713;DHT22;1872;51.406;6.856;2023-04-06T00:31:08;3.20;93.10
3713;DHT22;1872;51.406;6.856;2023-04-06T00:33:33;3.20;93.30
3713;DHT22;1872;51.406;6.856;2023-04-06T00:35:59;3.20;93.40
3713;DHT22;1872;51.406;6.856;2023-04-06T00:38:25;3.20;93.50
3713;DHT22;1872;51.406;6.856;2023-04-06T00:40:51;3.20;93.60
3713;DHT22;1872;51.406;6.856;2023-04-06T00:43:17;3.20;93.70
3713;DHT22;1872;51.406;6.856;2023-04-06T00:45:42;3.20;93.80
3713;DHT22;1872;51.406;6.856;2023-04-06T00:48:08;3.20;93.90
3713;DHT22;1872;51.406;6.856;2023-04-06T00:50:35;3.10;93.90
3713;DHT22;1872;51.406;6.856;2023-04-06T00:53:00;3.10;93.90
3713;DHT22;1872;51.406;6.856;2023-04-06T00:55:27;3.00;94.00
3713;DHT22;1872;51.406;6.856;2023-04-06T00:57:53;2.90;94.10
3713;DHT22;1872;51.406;6.856;2023-04-06T01:00:19;2.90;94.20
3713;DHT22;1872;51.406;6.856;2023-04-06T01:02:44;2.90;94.30
3713;DHT22;1872;51.406;6.856;2023-04-06T01:05:11;2.90;94.40
3713;DHT22;1872;51.406;6.856;2023-04-06T01:07:37;2.90;94.50
3713;DHT22;1872;51.406;6.856;2023-04-06T01:10:03;2.80;94.50
3713;DHT22;1872;51.406;6.856;2023-04-06T01:12:29;2.80;94.60
3713;DHT22;1872;51.406;6.856;2023-04-06T01:14:55;2.70;94.70
3713;DHT22;1872;51.406;6.856;2023-04-06T01:17:21;2.70;94.80
3713;DHT22;1872;51.406;6.856;2023-04-06T01:19:47;2.70;94.90
3713;DHT22;1872;51.406;6.856;2023-04-06T01:22:18;2.70;95.00
3713;DHT22;1872;51.406;6.856;2023-04-06T01:24:44;2.70;95.10
3713;DHT22;1872;51.406;6.856;2023-04-06T01:27:10;2.70;95.20
3713;DHT22;1872;51.406;6.856;2023-04-06T01:29:36;2.60;95.30
3713;DHT22;1872;51.406;6.856;2023-04-06T01:32:09;2.60;95.40
3713;DHT22;1872;51.406;6.856;2023-04-06T01:34:35;2.60;95.60
3713;DHT22;1872;51.406;6.856;2023-04-06T01:37:01;2.60;95.60
3713;DHT22;1872;51.406;6.856;2023-04-06T01:39:26;2.60;95.80
3713;DHT22;1872;51.406;6.856;2023-04-06T01:41:52;2.60;95.90
3713;DHT22;1872;51.406;6.856;2023-04-06T01:44:18;2.60;96.10
3713;DHT22;1872;51.406;6.856;2023-04-06T01:46:44;2.60;96.20
3713;DHT22;1872;51.406;6.856;2023-04-06T01:49:11;2.60;96.20
3713;DHT22;1872;51.406;6.856;2023-04-06T01:51:37;2.50;96.30
3713;DHT22;1872;51.406;6.856;2023-04-06T01:54:03;2.50;96.40
3713;DHT22;1872;51.406;6.856;2023-04-06T01:56:28;2.50;96.50
3713;DHT22;1872;51.406;6.856;2023-04-06T01:58:54;2.50;96.70
3713;DHT22;1872;51.406;6.856;2023-04-06T02:01:21;2.50;96.80
3713;DHT22;1872;51.406;6.856;2023-04-06T02:03:46;2.50;96.90
3713;DHT22;1872;51.406;6.856;2023-04-06T02:06:12;2.50;97.00
3713;DHT22;1872;51.406;6.856;2023-04-06T02:08:37;2.50;97.10
3713;DHT22;1872;51.406;6.856;2023-04-06T02:11:03;2.50;97.20
3713;DHT22;1872;51.406;6.856;2023-04-06T02:13:29;2.50;97.30
3713;DHT22;1872;51.406;6.856;2023-04-06T02:15:55;2.50;97.30
3713;DHT22;1872;51.406;6.856;2023-04-06T02:18:20;2.50;97.40
3713;DHT22;1872;51.406;6.856;2023-04-06T02:20:46;2.50;97.50
3713;DHT22;1872;51.406;6.856;2023-04-06T02:23:12;2.50;97.70
3713;DHT22;1872;51.406;6.856;2023-04-06T02:25:39;2.50;97.80
3713;DHT22;1872;51.406;6.856;2023-04-06T02:28:05;2.50;97.90
3713;DHT22;1872;51.406;6.856;2023-04-06T02:30:31;2.50;97.90
3713;DHT22;1872;51.406;6.856;2023-04-06T02:33:00;2.50;98.10
3713;DHT22;1872;51.406;6.856;2023-04-06T02:35:30;2.60;98.20
3713;DHT22;1872;51.406;6.856;2023-04-06T02:37:56;2.60;98.30
3713;DHT22;1872;51.406;6.856;2023-04-06T02:40:22;2.60;98.40
3713;DHT22;1872;51.406;6.856;2023-04-06T02:42:48;2.60;98.50
3713;DHT22;1872;51.406;6.856;2023-04-06T02:45:14;2.60;98.60
3713;DHT22;1872;51.406;6.856;2023-04-06T02:47:39;2.60;98.60
3713;DHT22;1872;51.406;6.856;2023-04-06T02:50:05;2.60;98.70
3713;DHT22;1872;51.406;6.856;2023-04-06T02:52:32;2.60;98.80
3713;DHT22;1872;51.406;6.856;2023-04-06T02:54:57;2.60;98.90
3713;DHT22;1872;51.406;6.856;2023-04-06T02:57:23;2.60;99.00
3713;DHT22;1872;51.406;6.856;2023-04-06T02:59:49;2.60;99.10
3713;DHT22;1872;51.406;6.856;2023-04-06T03:02:15;2.60;99.20
3713;DHT22;1872;51.406;6.856;2023-04-06T03:04:42;2.60;99.40
3713;DHT22;1872;51.406;6.856;2023-04-06T03:07:08;2.60;99.40
3713;DHT22;1872;51.406;6.856;2023-04-06T03:09:36;2.60;99.50
3713;DHT22;1872;51.406;6.856;2023-04-06T03:12:02;2.60;99.60
3713;DHT22;1872;51.406;6.856;2023-04-06T03:14:28;2.60;99.70
3713;DHT22;1872;51.406;6.856;2023-04-06T03:16:53;2.60;99.70
3713;DHT22;1872;51.406;6.856;2023-04-06T03:19:19;2.60;99.80
3713;DHT22;1872;51.406;6.856;2023-04-06T03:21:45;2.60;99.90
3713;DHT22;1872;51.406;6.856;2023-04-06T03:24:11;2.60;99.90
3713;DHT22;1872;51.406;6.856;2023-04-06T03:26:38;2.60;99.90
3713;DHT22;1872;51.406;6.856;2023-04-06T03:29:03;2.60;99.90
3713;DHT22;1872;51.406;6.856;2023-04-06T03:31:29;2.60;99.90
3713;DHT22;1872;51.406;6.856;2023-04-06T03:33:55;2.60;99.90
3713;DHT22;1872;51.406;6.856;2023-04-06T03:36:21;2.60;99.90
3713;DHT22;1872;51.406;6.856;2023-04-06T03:38:47;2.50;99.90
3713;DHT22;1872;51.406;6.856;2023-04-06T03:41:12;2.50;99.90
3713;DHT22;1872;51.406;6.856;2023-04-06T03:43:38;2.50;99.90
3713;DHT22;1872;51.406;6.856;2023-04-06T03:46:04;2.50;99.90
3713;DHT22;1872;51.406;6.856;2023-04-06T03:48:30;2.50;99.90
3713;DHT22;1872;51.406;6.856;2023-04-06T03:50:55;2.50;99.90
3713;DHT22;1872;51.406;6.856;2023-04-06T03:53:21;2.40;99.90
3713;DHT22;1872;51.406;6.856;2023-04-06T03:55:47;2.50;99.90
3713;DHT22;1872;51.406;6.856;2023-04-06T03:58:15;2.50;99.90
3713;DHT22;1872;51.406;6.856;2023-04-06T04:00:48;2.50;99.90
3713;DHT22;1872;51.406;6.856;2023-04-06T04:03:14;2.50;99.90
3713;DHT22;1872;51.406;6.856;2023-04-06T04:05:39;2.40;99.90
3713;DHT22;1872;51.406;6.856;2023-04-06T04:08:05;2.40;99.90
3713;DHT22;1872;51.406;6.856;2023-04-06T04:10:31;2.40;99.90
3713;DHT22;1872;51.406;6.856;2023-04-06T04:12:57;2.40;99.90
3713;DHT22;1872;51.406;6.856;2023-04-06T04:15:22;2.40;99.90
3713;DHT22;1872;51.406;6.856;2023-04-06T04:17:48;2.40;99.90
3713;DHT22;1872;51.406;6.856;2023-04-06T04:20:16;2.40;99.90
3713;DHT22;1872;51.406;6.856;2023-04-06T04:22:42;2.40;99.90
3713;DHT22;1872;51.406;6.856;2023-04-06T04:25:08;2.40;99.90
3713;DHT22;1872;51.406;6.856;2023-04-06T04:27:34;2.40;99.90
3713;DHT22;1872;51.406;6.856;2023-04-06T04:30:00;2.40;99.90
3713;DHT22;1872;51.406;6.856;2023-04-06T04:32:26;2.40;99.90
3713;DHT22;1872;51.406;6.856;2023-04-06T04:34:55;2.40;99.90
3713;DHT22;1872;51.406;6.856;2023-04-06T04:37:20;2.30;99.90
3713;DHT22;1872;51.406;6.856;2023-04-06T04:39:46;2.40;99.90
3713;DHT22;1872;51.406;6.856;2023-04-06T04:42:12;2.40;99.90
3713;DHT22;1872;51.406;6.856;2023-04-06T04:44:41;2.40;99.90
3713;DHT22;1872;51.406;6.856;2023-04-06T04:47:06;2.40;99.90
3713;DHT22;1872;51.406;6.856;2023-04-06T04:49:32;2.40;99.90
3713;DHT22;1872;51.406;6.856;2023-04-06T04:51:57;2.40;99.90
3713;DHT22;1872;51.406;6.856;2023-04-06T04:54:23;2.40;99.90
3713;DHT22;1872;51.406;6.856;2023-04-06T04:56:49;2.40;99.90
3713;DHT22;1872;51.406;6.856;2023-04-06T04:59:15;2.40;99.90
3713;DHT22;1872;51.406;6.856;2023-04-06T05:01:41;2.50;99.90
3713;DHT22;1872;51.406;6.856;2023-04-06T05:04:07;2.50;99.90
3713;DHT22;1872;51.406;6.856;2023-04-06T05:06:33;2.50;99.90
3713;DHT22;1872;51.406;6.856;2023-04-06T05:08:58;2.50;99.90
3713;DHT22;1872;51.406;6.856;2023-04-06T05:11:24;2.50;99.90
3713;DHT22;1872;51.406;6.856;2023-04-06T05:13:50;2.50;99.90
3713;DHT22;1872;51.406;6.856;2023-04-06T05:16:16;2.60;99.90
3713;DHT22;1872;51.406;6.856;2023-04-06T05:18:42;2.60;99.90
3713;DHT22;1872;51.406;6.856;2023-04-06T05:21:08;2.60;99.90
3713;DHT22;1872;51.406;6.856;2023-04-06T05:23:33;2.70;99.90
3713;DHT22;1872;51.406;6.856;2023-04-06T05:26:01;2.70;99.90
3713;DHT22;1872;51.406;6.856;2023-04-06T05:28:27;2.70;99.90
3713;DHT22;1872;51.406;6.856;2023-04-06T05:30:53;2.80;99.90
3713;DHT22;1872;51.406;6.856;2023-04-06T05:33:22;2.80;99.90
3713;DHT22;1872;51.406;6.856;2023-04-06T05:35:48;2.90;99.90
3713;DHT22;1872;51.406;6.856;2023-04-06T05:38:14;2.90;99.90
3713;DHT22;1872;51.406;6.856;2023-04-06T05:40:40;3.00;99.90
3713;DHT22;1872;51.406;6.856;2023-04-06T05:43:07;3.00;99.90
3713;DHT22;1872;51.406;6.856;2023-04-06T05:45:33;3.00;99.90
3713;DHT22;1872;51.406;6.856;2023-04-06T05:47:59;3.10;99.90
3713;DHT22;1872;51.406;6.856;2023-04-06T05:50:24;3.20;99.90
3713;DHT22;1872;51.406;6.856;2023-04-06T05:52:50;3.30;99.90
3713;DHT22;1872;51.406;6.856;2023-04-06T05:55:16;3.30;99.90
3713;DHT22;1872;51.406;6.856;2023-04-06T05:57:42;3.40;99.90
3713;DHT22;1872;51.406;6.856;2023-04-06T06:00:08;3.40;99.90
3713;DHT22;1872;51.406;6.856;2023-04-06T06:02:35;3.50;99.90
3713;DHT22;1872;51.406;6.856;2023-04-06T06:05:00;3.50;99.90
3713;DHT22;1872;51.406;6.856;2023-04-06T06:07:26;3.60;99.90
3713;DHT22;1872;51.406;6.856;2023-04-06T06:09:52;3.70;99.90
3713;DHT22;1872;51.406;6.856;2023-04-06T06:12:17;3.80;99.90
3713;DHT22;1872;51.406;6.856;2023-04-06T06:14:43;3.80;99.90
3713;DHT22;1872;51.406;6.856;2023-04-06T06:17:09;3.90;99.90
3713;DHT22;1872;51.406;6.856;2023-04-06T06:19:34;4.00;99.90
3713;DHT22;1872;51.406;6.856;2023-04-06T06:22:00;4.10;99.90
3713;DHT22;1872;51.406;6.856;2023-04-06T06:24:28;4.20;99.90
3713;DHT22;1872;51.406;6.856;2023-04-06T06:26:54;4.30;99.90
3713;DHT22;1872;51.406;6.856;2023-04-06T06:29:19;4.40;99.90
3713;DHT22;1872;51.406;6.856;2023-04-06T06:31:45;4.50;99.90
3713;DHT22;1872;51.406;6.856;2023-04-06T06:34:11;4.70;99.90
3713;DHT22;1872;51.406;6.856;2023-04-06T06:36:38;4.90;99.90
3713;DHT22;1872;51.406;6.856;2023-04-06T06:39:03;5.40;99.90
3713;DHT22;1872;51.406;6.856;2023-04-06T06:41:29;5.90;99.90
3713;DHT22;1872;51.406;6.856;2023-04-06T06:43:55;6.50;99.90
3713;DHT22;1872;51.406;6.856;2023-04-06T06:46:21;7.00;99.90
3713;DHT22;1872;51.406;6.856;2023-04-06T06:48:46;7.50;99.90
3713;DHT22;1872;51.406;6.856;2023-04-06T06:51:12;8.00;99.90
3713;DHT22;1872;51.406;6.856;2023-04-06T06:53:38;8.50;99.90
3713;DHT22;1872;51.406;6.856;2023-04-06T06:56:04;8.80;99.90
3713;DHT22;1872;51.406;6.856;2023-04-06T06:58:29;9.10;99.90
3713;DHT22;1872;51.406;6.856;2023-04-06T07:00:59;9.30;99.90
3713;DHT22;1872;51.406;6.856;2023-04-06T07:03:25;9.60;99.90
3713;DHT22;1872;51.406;6.856;2023-04-06T07:05:51;9.90;99.90
3713;DHT22;1872;51.406;6.856;2023-04-06T07:08:23;10.20;99.90
3713;DHT22;1872;51.406;6.856;2023-04-06T07:10:52;10.30;99.90
3713;DHT22;1872;51.406;6.856;2023-04-06T07:13:19;10.40;99.90
3713;DHT22;1872;51.406;6.856;2023-04-06T07:15:49;10.60;99.90
3713;DHT22;1872;51.406;6.856;2023-04-06T07:18:15;10.60;99.90
3713;DHT22;1872;51.406;6.856;2023-04-06T07:20:41;10.80;99.90
3713;DHT22;1872;51.406;6.856;2023-04-06T07:23:07;10.80;99.90
3713;DHT22;1872;51.406;6.856;2023-04-06T07:25:33;10.90;99.90
3713;DHT22;1872;51.406;6.856;2023-04-06T07:27:58;11.00;99.50
3713;DHT22;1872;51.406;6.856;2023-04-06T07:30:24;11.20;99.20
3713;DHT22;1872;51.406;6.856;2023-04-06T07:32:54;11.30;98.50
3713;DHT22;1872;51.406;6.856;2023-04-06T07:35:25;11.50;98.50
3713;DHT22;1872;51.406;6.856;2023-04-06T07:37:54;11.70;98.40
3713;DHT22;1872;51.406;6.856;2023-04-06T07:40:20;12.00;98.10
3713;DHT22;1872;51.406;6.856;2023-04-06T07:42:46;12.30;98.20
3713;DHT22;1872;51.406;6.856;2023-04-06T07:45:12;12.60;97.50
3713;DHT22;1872;51.406;6.856;2023-04-06T07:47:37;12.70;96.30
3713;DHT22;1872;51.406;6.856;2023-04-06T07:50:03;12.70;95.10
3713;DHT22;1872;51.406;6.856;2023-04-06T07:52:29;12.50;94.10
3713;DHT22;1872;51.406;6.856;2023-04-06T07:54:57;12.30;93.30
3713;DHT22;1872;51.406;6.856;2023-04-06T07:57:23;12.10;93.40
3713;DHT22;1872;51.406;6.856;2023-04-06T07:59:49;12.20;93.60
3713;DHT22;1872;51.406;6.856;2023-04-06T08:02:15;12.30;93.70
3713;DHT22;1872;51.406;6.856;2023-04-06T08:04:40;12.40;93.70
3713;DHT22;1872;51.406;6.856;2023-04-06T08:07:06;12.60;93.50
3713;DHT22;1872;51.406;6.856;2023-04-06T08:09:32;12.80;93.10
3713;DHT22;1872;51.406;6.856;2023-04-06T08:11:57;13.00;93.00
3713;DHT22;1872;51.406;6.856;2023-04-06T08:14:26;13.10;92.30
3713;DHT22;1872;51.406;6.856;2023-04-06T08:16:52;13.30;92.50
3713;DHT22;1872;51.406;6.856;2023-04-06T08:19:18;13.60;92.30
3713;DHT22;1872;51.406;6.856;2023-04-06T08:21:45;13.80;91.90
3713;DHT22;1872;51.406;6.856;2023-04-06T08:24:12;13.90;91.30
3713;DHT22;1872;51.406;6.856;2023-04-06T08:26:37;14.00;90.60
3713;DHT22;1872;51.406;6.856;2023-04-06T08:29:03;14.00;90.00
3713;DHT22;1872;51.406;6.856;2023-04-06T08:31:30;14.00;88.90
3713;DHT22;1872;51.406;6.856;2023-04-06T08:33:56;13.90;87.90
3713;DHT22;1872;51.406;6.856;2023-04-06T08:36:21;13.80;87.00
3713;DHT22;1872;51.406;6.856;2023-04-06T08:38:48;13.80;86.40
3713;DHT22;1872;51.406;6.856;2023-04-06T08:41:15;13.80;86.00
3713;DHT22;1872;51.406;6.856;2023-04-06T08:43:47;13.80;85.20
3713;DHT22;1872;51.406;6.856;2023-04-06T08:46:17;13.80;85.30
3713;DHT22;1872;51.406;6.856;2023-04-06T08:48:43;13.90;83.90
3713;DHT22;1872;51.406;6.856;2023-04-06T08:51:09;14.00;83.30
3713;DHT22;1872;51.406;6.856;2023-04-06T08:53:36;13.90;82.30
3713;DHT22;1872;51.406;6.856;2023-04-06T08:56:09;13.90;81.20
3713;DHT22;1872;51.406;6.856;2023-04-06T08:58:39;13.90;80.90
3713;DHT22;1872;51.406;6.856;2023-04-06T09:01:11;13.80;80.10
3713;DHT22;1872;51.406;6.856;2023-04-06T09:03:39;13.70;79.90
3713;DHT22;1872;51.406;6.856;2023-04-06T09:06:06;13.80;79.90
3713;DHT22;1872;51.406;6.856;2023-04-06T09:08:37;13.70;79.40
3713;DHT22;1872;51.406;6.856;2023-04-06T09:11:03;13.80;79.20
3713;DHT22;1872;51.406;6.856;2023-04-06T09:13:29;13.80;79.20
3713;DHT22;1872;51.406;6.856;2023-04-06T09:16:03;13.80;78.80
3713;DHT22;1872;51.406;6.856;2023-04-06T09:18:33;13.90;78.10
3713;DHT22;1872;51.406;6.856;2023-04-06T09:21:02;13.90;78.10
3713;DHT22;1872;51.406;6.856;2023-04-06T09:23:28;13.90;78.40
3713;DHT22;1872;51.406;6.856;2023-04-06T09:26:13;13.90;77.80
3713;DHT22;1872;51.406;6.856;2023-04-06T09:28:50;13.90;78.40
3713;DHT22;1872;51.406;6.856;2023-04-06T09:31:29;13.90;77.60
3713;DHT22;1872;51.406;6.856;2023-04-06T09:33:56;13.90;77.20
3713;DHT22;1872;51.406;6.856;2023-04-06T09:36:34;13.90;76.80
3713;DHT22;1872;51.406;6.856;2023-04-06T09:39:04;13.80;76.40
3713;DHT22;1872;51.406;6.856;2023-04-06T09:41:35;13.70;76.10
3713;DHT22;1872;51.406;6.856;2023-04-06T09:44:10;13.70;76.20
3713;DHT22;1872;51.406;6.856;2023-04-06T09:46:38;13.60;75.70
3713;DHT22;1872;51.406;6.856;2023-04-06T09:49:05;13.60;75.80
3713;DHT22;1872;51.406;6.856;2023-04-06T09:51:40;13.60;75.90
3713;DHT22;1872;51.406;6.856;2023-04-06T09:54:06;13.60;75.90
3713;DHT22;1872;51.406;6.856;2023-04-06T09:57:11;13.60;76.10
3713;DHT22;1872;51.406;6.856;2023-04-06T09:59:59;13.60;74.90
3713;DHT22;1872;51.406;6.856;2023-04-06T10:05:55;13.50;75.20
3713;DHT22;1872;51.406;6.856;2023-04-06T10:08:26;13.60;75.80
3713;DHT22;1872;51.406;6.856;2023-04-06T10:10:54;13.50;75.30
3713;DHT22;1872;51.406;6.856;2023-04-06T10:13:23;13.50;75.10
3713;DHT22;1872;51.406;6.856;2023-04-06T10:15:50;13.60;74.90
3713;DHT22;1872;51.406;6.856;2023-04-06T10:18:17;13.60;74.40
3713;DHT22;1872;51.406;6.856;2023-04-06T10:20:49;13.60;74.40
3713;DHT22;1872;51.406;6.856;2023-04-06T10:23:37;13.70;74.90
3713;DHT22;1872;51.406;6.856;2023-04-06T10:26:05;13.70;74.60
3713;DHT22;1872;51.406;6.856;2023-04-06T10:28:33;13.70;74.40
3713;DHT22;1872;51.406;6.856;2023-04-06T10:31:02;13.70;74.70
3713;DHT22;1872;51.406;6.856;2023-04-06T10:33:29;13.70;74.70
3713;DHT22;1872;51.406;6.856;2023-04-06T10:35:55;13.70;74.60
3713;DHT22;1872;51.406;6.856;2023-04-06T10:38:42;13.70;74.70
3713;DHT22;1872;51.406;6.856;2023-04-06T10:41:10;13.80;74.90
3713;DHT22;1872;51.406;6.856;2023-04-06T10:43:38;13.90;75.00
3713;DHT22;1872;51.406;6.856;2023-04-06T10:46:05;14.00;74.70
3713;DHT22;1872;51.406;6.856;2023-04-06T10:48:42;14.00;74.10
3713;DHT22;1872;51.406;6.856;2023-04-06T10:51:18;14.00;73.80
3713;DHT22;1872;51.406;6.856;2023-04-06T10:53:48;13.90;74.10
3713;DHT22;1872;51.406;6.856;2023-04-06T10:56:15;14.00;74.90
3713;DHT22;1872;51.406;6.856;2023-04-06T10:58:45;14.10;75.30
3713;DHT22;1872;51.406;6.856;2023-04-06T11:01:19;14.20;75.30
3713;DHT22;1872;51.406;6.856;2023-04-06T11:03:46;14.30;75.10
3713;DHT22;1872;51.406;6.856;2023-04-06T11:06:23;14.30;75.00
3713;DHT22;1872;51.406;6.856;2023-04-06T11:08:49;14.30;74.10
3713;DHT22;1872;51.406;6.856;2023-04-06T11:11:17;14.30;74.50
3713;DHT22;1872;51.406;6.856;2023-04-06T11:13:52;14.30;74.40
3713;DHT22;1872;51.406;6.856;2023-04-06T11:16:28;14.40;74.20
3713;DHT22;1872;51.406;6.856;2023-04-06T11:19:00;14.40;74.50
3713;DHT22;1872;51.406;6.856;2023-04-06T11:21:37;14.40;74.50
3713;DHT22;1872;51.406;6.856;2023-04-06T11:24:15;14.40;74.70
3713;DHT22;1872;51.406;6.856;2023-04-06T11:26:43;14.40;74.30
3713;DHT22;1872;51.406;6.856;2023-04-06T11:29:10;14.30;74.00
3713;DHT22;1872;51.406;6.856;2023-04-06T11:31:40;14.30;74.00
3713;DHT22;1872;51.406;6.856;2023-04-06T11:34:10;14.20;73.50
3713;DHT22;1872;51.406;6.856;2023-04-06T11:36:40;14.20;73.40
3713;DHT22;1872;51.406;6.856;2023-04-06T11:39:06;14.20;73.60
3713;DHT22;1872;51.406;6.856;2023-04-06T11:41:32;14.20;74.00
3713;DHT22;1872;51.406;6.856;2023-04-06T11:44:01;14.20;74.00
3713;DHT22;1872;51.406;6.856;2023-04-06T11:46:28;14.20;74.30
3713;DHT22;1872;51.406;6.856;2023-04-06T11:48:58;14.30;74.50
3713;DHT22;1872;51.406;6.856;2023-04-06T11:51:35;14.30;74.10
3713;DHT22;1872;51.406;6.856;2023-04-06T11:54:02;14.30;74.10
3713;DHT22;1872;51.406;6.856;2023-04-06T11:56:30;14.30;74.50
3713;DHT22;1872;51.406;6.856;2023-04-06T11:58:57;14.30;74.70
3713;DHT22;1872;51.406;6.856;2023-04-06T12:01:24;14.20;75.20
3713;DHT22;1872;51.406;6.856;2023-04-06T12:03:51;14.20;75.20
3713;DHT22;1872;51.406;6.856;2023-04-06T12:06:17;14.20;75.40
3713;DHT22;1872;51.406;6.856;2023-04-06T12:08:43;14.20;75.50
3713;DHT22;1872;51.406;6.856;2023-04-06T12:11:10;14.10;75.90
3713;DHT22;1872;51.406;6.856;2023-04-06T12:13:36;14.10;76.20
3713;DHT22;1872;51.406;6.856;2023-04-06T12:16:01;14.10;76.40
3713;DHT22;1872;51.406;6.856;2023-04-06T12:18:27;14.10;76.80
3713;DHT22;1872;51.406;6.856;2023-04-06T12:20:53;14.10;76.90
3713;DHT22;1872;51.406;6.856;2023-04-06T12:23:19;14.10;77.20
3713;DHT22;1872;51.406;6.856;2023-04-06T12:25:45;14.10;77.20
3713;DHT22;1872;51.406;6.856;2023-04-06T12:28:11;14.20;77.40
3713;DHT22;1872;51.406;6.856;2023-04-06T12:30:39;14.30;77.70
3713;DHT22;1872;51.406;6.856;2023-04-06T12:33:06;14.20;77.60
3713;DHT22;1872;51.406;6.856;2023-04-06T12:35:36;14.20;78.10
3713;DHT22;1872;51.406;6.856;2023-04-06T12:38:02;14.20;78.20
3713;DHT22;1872;51.406;6.856;2023-04-06T12:40:30;14.10;78.30
3713;DHT22;1872;51.406;6.856;2023-04-06T12:42:56;14.20;78.10
3713;DHT22;1872;51.406;6.856;2023-04-06T12:45:21;14.20;78.20
3713;DHT22;1872;51.406;6.856;2023-04-06T12:47:47;14.20;78.20
3713;DHT22;1872;51.406;6.856;2023-04-06T12:50:12;14.10;77.80
3713;DHT22;1872;51.406;6.856;2023-04-06T12:52:38;14.10;77.80
3713;DHT22;1872;51.406;6.856;2023-04-06T12:55:04;14.20;78.10
3713;DHT22;1872;51.406;6.856;2023-04-06T12:57:31;14.20;77.80
3713;DHT22;1872;51.406;6.856;2023-04-06T12:59:57;14.10;77.60
3713;DHT22;1872;51.406;6.856;2023-04-06T13:02:30;13.90;77.70
3713;DHT22;1872;51.406;6.856;2023-04-06T13:04:56;13.90;78.00
3713;DHT22;1872;51.406;6.856;2023-04-06T13:07:22;13.80;78.10
3713;DHT22;1872;51.406;6.856;2023-04-06T13:09:47;13.80;78.40
3713;DHT22;1872;51.406;6.856;2023-04-06T13:12:15;13.80;78.20
3713;DHT22;1872;51.406;6.856;2023-04-06T13:14:41;13.90;78.00
3713;DHT22;1872;51.406;6.856;2023-04-06T13:17:06;13.80;77.60
3713;DHT22;1872;51.406;6.856;2023-04-06T13:19:32;13.80;77.60
3713;DHT22;1872;51.406;6.856;2023-04-06T13:21:58;13.80;77.60
3713;DHT22;1872;51.406;6.856;2023-04-06T13:24:24;13.80;77.70
3713;DHT22;1872;51.406;6.856;2023-04-06T13:26:50;13.70;77.30
3713;DHT22;1872;51.406;6.856;2023-04-06T13:29:16;13.70;77.00
3713;DHT22;1872;51.406;6.856;2023-04-06T13:31:41;13.60;77.40
3713;DHT22;1872;51.406;6.856;2023-04-06T13:34:09;13.60;77.60
3713;DHT22;1872;51.406;6.856;2023-04-06T13:36:35;13.60;77.90
3713;DHT22;1872;51.406;6.856;2023-04-06T13:39:01;13.50;78.40
3713;DHT22;1872;51.406;6.856;2023-04-06T13:41:27;13.60;78.80
3713;DHT22;1872;51.406;6.856;2023-04-06T13:43:55;13.60;78.90
3713;DHT22;1872;51.406;6.856;2023-04-06T13:46:25;13.60;79.00
3713;DHT22;1872;51.406;6.856;2023-04-06T13:48:51;13.60;79.40
3713;DHT22;1872;51.406;6.856;2023-04-06T13:51:17;13.60;79.60
3713;DHT22;1872;51.406;6.856;2023-04-06T13:53:42;13.50;79.70
3713;DHT22;1872;51.406;6.856;2023-04-06T13:56:15;13.40;80.00
3713;DHT22;1872;51.406;6.856;2023-04-06T13:58:41;13.40;80.20
3713;DHT22;1872;51.406;6.856;2023-04-06T14:01:09;13.30;80.60
3713;DHT22;1872;51.406;6.856;2023-04-06T14:03:36;13.20;81.10
3713;DHT22;1872;51.406;6.856;2023-04-06T14:06:10;13.00;81.50
3713;DHT22;1872;51.406;6.856;2023-04-06T14:08:35;13.00;82.40
3713;DHT22;1872;51.406;6.856;2023-04-06T14:11:01;13.00;83.30
3713;DHT22;1872;51.406;6.856;2023-04-06T14:13:27;13.00;84.20
3713;DHT22;1872;51.406;6.856;2023-04-06T14:15:53;13.00;85.40
3713;DHT22;1872;51.406;6.856;2023-04-06T14:18:20;12.90;86.20
3713;DHT22;1872;51.406;6.856;2023-04-06T14:20:57;12.90;86.70
3713;DHT22;1872;51.406;6.856;2023-04-06T14:23:27;12.90;87.60
3713;DHT22;1872;51.406;6.856;2023-04-06T14:26:08;12.70;88.10
3713;DHT22;1872;51.406;6.856;2023-04-06T14:28:34;12.70;88.90
3713;DHT22;1872;51.406;6.856;2023-04-06T14:31:02;12.70;89.30
3713;DHT22;1872;51.406;6.856;2023-04-06T14:33:31;12.80;90.00
3713;DHT22;1872;51.406;6.856;2023-04-06T14:35:56;12.80;90.40
3713;DHT22;1872;51.406;6.856;2023-04-06T14:38:22;12.80;90.80
3713;DHT22;1872;51.406;6.856;2023-04-06T14:40:48;12.70;91.10
3713;DHT22;1872;51.406;6.856;2023-04-06T14:43:14;12.80;91.40
3713;DHT22;1872;51.406;6.856;2023-04-06T14:45:40;12.80;91.50
3713;DHT22;1872;51.406;6.856;2023-04-06T14:48:06;12.80;91.90
3713;DHT22;1872;51.406;6.856;2023-04-06T14:50:32;12.80;92.00
3713;DHT22;1872;51.406;6.856;2023-04-06T14:52:59;12.80;92.10
3713;DHT22;1872;51.406;6.856;2023-04-06T14:55:25;12.70;92.10
3713;DHT22;1872;51.406;6.856;2023-04-06T14:57:51;12.70;92.10
3713;DHT22;1872;51.406;6.856;2023-04-06T15:00:17;12.60;92.10
3713;DHT22;1872;51.406;6.856;2023-04-06T15:02:45;12.60;92.40
3713;DHT22;1872;51.406;6.856;2023-04-06T15:05:14;12.50;92.40
3713;DHT22;1872;51.406;6.856;2023-04-06T15:07:39;12.40;92.70
3713;DHT22;1872;51.406;6.856;2023-04-06T15:10:06;12.40;93.00
3713;DHT22;1872;51.406;6.856;2023-04-06T15:12:31;12.30;93.50
3713;DHT22;1872;51.406;6.856;2023-04-06T15:14:58;12.10;93.40
3713;DHT22;1872;51.406;6.856;2023-04-06T15:17:26;12.00;93.70
3713;DHT22;1872;51.406;6.856;2023-04-06T15:19:52;11.80;93.90
3713;DHT22;1872;51.406;6.856;2023-04-06T15:22:18;11.70;94.20
3713;DHT22;1872;51.406;6.856;2023-04-06T15:24:44;11.60;94.50
3713;DHT22;1872;51.406;6.856;2023-04-06T15:27:10;11.50;94.80
3713;DHT22;1872;51.406;6.856;2023-04-06T15:29:36;11.40;95.20
3713;DHT22;1872;51.406;6.856;2023-04-06T15:32:01;11.30;96.10
3713;DHT22;1872;51.406;6.856;2023-04-06T15:34:27;11.10;96.30
3713;DHT22;1872;51.406;6.856;2023-04-06T15:36:55;11.00;96.70
3713;DHT22;1872;51.406;6.856;2023-04-06T15:39:24;10.80;97.10
3713;DHT22;1872;51.406;6.856;2023-04-06T15:41:49;10.70;97.40
3713;DHT22;1872;51.406;6.856;2023-04-06T15:44:15;10.70;98.10
3713;DHT22;1872;51.406;6.856;2023-04-06T15:46:41;10.60;98.40
3713;DHT22;1872;51.406;6.856;2023-04-06T15:49:07;10.50;98.80
3713;DHT22;1872;51.406;6.856;2023-04-06T15:51:32;10.50;99.20
3713;DHT22;1872;51.406;6.856;2023-04-06T15:53:58;10.40;99.90
3713;DHT22;1872;51.406;6.856;2023-04-06T15:56:24;10.40;99.90
3713;DHT22;1872;51.406;6.856;2023-04-06T15:58:49;10.30;99.90
3713;DHT22;1872;51.406;6.856;2023-04-06T16:01:17;10.30;99.90
3713;DHT22;1872;51.406;6.856;2023-04-06T16:03:43;10.30;99.90
3713;DHT22;1872;51.406;6.856;2023-04-06T16:06:11;10.20;99.90
3713;DHT22;1872;51.406;6.856;2023-04-06T16:08:38;10.20;99.90
3713;DHT22;1872;51.406;6.856;2023-04-06T16:11:04;10.10;99.90
3713;DHT22;1872;51.406;6.856;2023-04-06T16:13:32;10.00;99.90